sensor_id;sensor_type;location;lat;lon;timestamp;P1;durP1;ratioP1;P2;durP2;ratioP2
62894;SDS011;49204;44.916;37.998;2022-10-16T00:01:47;8.20;;;3.37;;
62894;SDS011;49204;44.916;37.998;2022-10-16T00:04:15;9.38;;;4.00;;
62894;SDS011;49204;44.916;37.998;2022-10-16T00:06:44;8.23;;;3.90;;
62894;SDS011;49204;44.916;37.998;2022-10-16T00:09:13;6.90;;;3.02;;
62894;SDS011;49204;44.916;37.998;2022-10-16T00:11:42;15.38;;;3.42;;
62894;SDS011;49204;44.916;37.998;2022-10-16T00:14:12;9.23;;;2.92;;
62894;SDS011;49204;44.916;37.998;2022-10-16T00:16:42;7.95;;;3.30;;
62894;SDS011;49204;44.916;37.998;2022-10-16T00:19:11;6.28;;;3.15;;
62894;SDS011;49204;44.916;37.998;2022-10-16T00:21:40;6.50;;;3.20;;
62894;SDS011;49204;44.916;37.998;2022-10-16T00:24:09;6.22;;;3.20;;
62894;SDS011;49204;44.916;37.998;2022-10-16T00:26:39;5.42;;;3.20;;
62894;SDS011;49204;44.916;37.998;2022-10-16T00:29:08;6.80;;;3.00;;
62894;SDS011;49204;44.916;37.998;2022-10-16T00:31:37;5.65;;;3.08;;
62894;SDS011;49204;44.916;37.998;2022-10-16T00:34:06;4.83;;;3.02;;
62894;SDS011;49204;44.916;37.998;2022-10-16T00:36:35;7.80;;;3.15;;
62894;SDS011;49204;44.916;37.998;2022-10-16T00:39:03;6.58;;;3.15;;
62894;SDS011;49204;44.916;37.998;2022-10-16T00:41:32;8.50;;;3.55;;
62894;SDS011;49204;44.916;37.998;2022-10-16T00:44:03;5.97;;;2.85;;
62894;SDS011;49204;44.916;37.998;2022-10-16T00:49:16;7.67;;;2.72;;
62894;SDS011;49204;44.916;37.998;2022-10-16T00:51:53;7.87;;;2.95;;
62894;SDS011;49204;44.916;37.998;2022-10-16T00:54:24;4.95;;;2.47;;
62894;SDS011;49204;44.916;37.998;2022-10-16T00:56:54;7.08;;;2.95;;
62894;SDS011;49204;44.916;37.998;2022-10-16T00:59:27;6.03;;;2.62;;
62894;SDS011;49204;44.916;37.998;2022-10-16T01:01:57;5.60;;;2.77;;
62894;SDS011;49204;44.916;37.998;2022-10-16T01:04:27;5.92;;;2.65;;
62894;SDS011;49204;44.916;37.998;2022-10-16T01:13:06;9.50;;;3.30;;
62894;SDS011;49204;44.916;37.998;2022-10-16T01:20:29;7.00;;;3.27;;
62894;SDS011;49204;44.916;37.998;2022-10-16T01:29:02;7.53;;;2.87;;
62894;SDS011;49204;44.916;37.998;2022-10-16T01:31:27;5.60;;;3.35;;
62894;SDS011;49204;44.916;37.998;2022-10-16T01:36:45;6.78;;;3.33;;
62894;SDS011;49204;44.916;37.998;2022-10-16T01:39:16;5.72;;;3.05;;
62894;SDS011;49204;44.916;37.998;2022-10-16T01:41:52;6.53;;;3.08;;
62894;SDS011;49204;44.916;37.998;2022-10-16T01:44:24;9.30;;;3.33;;
62894;SDS011;49204;44.916;37.998;2022-10-16T01:47:00;6.72;;;3.35;;
62894;SDS011;49204;44.916;37.998;2022-10-16T01:49:31;7.15;;;3.22;;
62894;SDS011;49204;44.916;37.998;2022-10-16T01:52:02;8.10;;;3.05;;
62894;SDS011;49204;44.916;37.998;2022-10-16T01:54:33;6.08;;;3.45;;
62894;SDS011;49204;44.916;37.998;2022-10-16T01:57:04;11.25;;;3.55;;
62894;SDS011;49204;44.916;37.998;2022-10-16T01:59:38;6.83;;;3.37;;
62894;SDS011;49204;44.916;37.998;2022-10-16T02:02:08;7.97;;;2.92;;
62894;SDS011;49204;44.916;37.998;2022-10-16T02:04:44;6.92;;;2.75;;
62894;SDS011;49204;44.916;37.998;2022-10-16T02:07:26;7.85;;;3.10;;
62894;SDS011;49204;44.916;37.998;2022-10-16T02:09:55;6.03;;;3.37;;
62894;SDS011;49204;44.916;37.998;2022-10-16T02:12:28;6.75;;;3.30;;
62894;SDS011;49204;44.916;37.998;2022-10-16T02:14:59;8.18;;;3.02;;
62894;SDS011;49204;44.916;37.998;2022-10-16T02:17:28;5.47;;;3.00;;
62894;SDS011;49204;44.916;37.998;2022-10-16T02:19:57;5.92;;;2.87;;
62894;SDS011;49204;44.916;37.998;2022-10-16T02:22:27;6.55;;;2.65;;
62894;SDS011;49204;44.916;37.998;2022-10-16T02:27:41;5.78;;;3.05;;
62894;SDS011;49204;44.916;37.998;2022-10-16T02:30:30;4.30;;;2.17;;
62894;SDS011;49204;44.916;37.998;2022-10-16T02:33:00;7.10;;;2.95;;
62894;SDS011;49204;44.916;37.998;2022-10-16T02:35:30;6.45;;;2.50;;
62894;SDS011;49204;44.916;37.998;2022-10-16T02:38:00;6.58;;;2.50;;
62894;SDS011;49204;44.916;37.998;2022-10-16T02:40:30;6.80;;;2.75;;
62894;SDS011;49204;44.916;37.998;2022-10-16T02:42:59;6.92;;;2.50;;
62894;SDS011;49204;44.916;37.998;2022-10-16T02:45:27;12.45;;;3.05;;
62894;SDS011;49204;44.916;37.998;2022-10-16T02:47:56;7.70;;;2.72;;
62894;SDS011;49204;44.916;37.998;2022-10-16T02:50:25;5.47;;;2.50;;
62894;SDS011;49204;44.916;37.998;2022-10-16T02:52:54;10.98;;;3.20;;
62894;SDS011;49204;44.916;37.998;2022-10-16T02:55:23;8.88;;;2.90;;
62894;SDS011;49204;44.916;37.998;2022-10-16T02:57:52;6.47;;;2.80;;
62894;SDS011;49204;44.916;37.998;2022-10-16T03:00:21;6.85;;;2.70;;
62894;SDS011;49204;44.916;37.998;2022-10-16T03:02:50;5.22;;;2.85;;
62894;SDS011;49204;44.916;37.998;2022-10-16T03:05:19;5.58;;;2.67;;
62894;SDS011;49204;44.916;37.998;2022-10-16T03:07:48;5.75;;;2.50;;
62894;SDS011;49204;44.916;37.998;2022-10-16T03:10:17;5.83;;;2.58;;
62894;SDS011;49204;44.916;37.998;2022-10-16T03:12:46;9.23;;;2.80;;
62894;SDS011;49204;44.916;37.998;2022-10-16T03:15:14;6.95;;;2.92;;
62894;SDS011;49204;44.916;37.998;2022-10-16T03:17:43;5.72;;;2.72;;
62894;SDS011;49204;44.916;37.998;2022-10-16T03:20:12;4.95;;;2.20;;
62894;SDS011;49204;44.916;37.998;2022-10-16T03:22:41;6.10;;;2.12;;
62894;SDS011;49204;44.916;37.998;2022-10-16T03:25:10;4.12;;;2.20;;
62894;SDS011;49204;44.916;37.998;2022-10-16T03:27:39;5.00;;;2.50;;
62894;SDS011;49204;44.916;37.998;2022-10-16T03:30:08;11.18;;;2.62;;
62894;SDS011;49204;44.916;37.998;2022-10-16T03:32:37;6.30;;;2.20;;
62894;SDS011;49204;44.916;37.998;2022-10-16T03:35:06;4.55;;;2.50;;
62894;SDS011;49204;44.916;37.998;2022-10-16T03:37:35;4.87;;;2.30;;
62894;SDS011;49204;44.916;37.998;2022-10-16T03:40:04;8.58;;;2.60;;
62894;SDS011;49204;44.916;37.998;2022-10-16T03:42:33;4.97;;;2.70;;
62894;SDS011;49204;44.916;37.998;2022-10-16T03:45:02;2.83;;;2.10;;
62894;SDS011;49204;44.916;37.998;2022-10-16T03:47:32;4.50;;;2.80;;
62894;SDS011;49204;44.916;37.998;2022-10-16T03:50:00;4.45;;;1.87;;
62894;SDS011;49204;44.916;37.998;2022-10-16T03:52:29;5.08;;;2.75;;
62894;SDS011;49204;44.916;37.998;2022-10-16T03:54:58;4.05;;;2.42;;
62894;SDS011;49204;44.916;37.998;2022-10-16T03:57:27;4.50;;;2.08;;
62894;SDS011;49204;44.916;37.998;2022-10-16T03:59:56;5.08;;;2.80;;
62894;SDS011;49204;44.916;37.998;2022-10-16T04:02:25;8.53;;;2.90;;
62894;SDS011;49204;44.916;37.998;2022-10-16T04:04:54;7.20;;;3.42;;
62894;SDS011;49204;44.916;37.998;2022-10-16T04:07:22;7.78;;;2.37;;
62894;SDS011;49204;44.916;37.998;2022-10-16T04:09:51;5.15;;;2.85;;
62894;SDS011;49204;44.916;37.998;2022-10-16T04:12:20;6.50;;;2.37;;
62894;SDS011;49204;44.916;37.998;2022-10-16T04:14:49;13.60;;;3.20;;
62894;SDS011;49204;44.916;37.998;2022-10-16T04:17:17;8.00;;;3.25;;
62894;SDS011;49204;44.916;37.998;2022-10-16T04:19:46;6.17;;;3.20;;
62894;SDS011;49204;44.916;37.998;2022-10-16T04:22:15;12.68;;;4.80;;
62894;SDS011;49204;44.916;37.998;2022-10-16T04:24:44;7.35;;;3.60;;
62894;SDS011;49204;44.916;37.998;2022-10-16T04:27:12;9.70;;;4.00;;
62894;SDS011;49204;44.916;37.998;2022-10-16T04:29:41;8.53;;;3.25;;
62894;SDS011;49204;44.916;37.998;2022-10-16T04:32:10;6.60;;;3.33;;
62894;SDS011;49204;44.916;37.998;2022-10-16T04:34:39;6.50;;;2.83;;
62894;SDS011;49204;44.916;37.998;2022-10-16T04:37:08;8.88;;;3.27;;
62894;SDS011;49204;44.916;37.998;2022-10-16T04:39:37;4.83;;;2.65;;
62894;SDS011;49204;44.916;37.998;2022-10-16T04:42:05;4.47;;;2.40;;
62894;SDS011;49204;44.916;37.998;2022-10-16T04:44:34;6.30;;;2.45;;
62894;SDS011;49204;44.916;37.998;2022-10-16T04:47:03;6.17;;;2.20;;
62894;SDS011;49204;44.916;37.998;2022-10-16T04:49:32;5.17;;;2.65;;
62894;SDS011;49204;44.916;37.998;2022-10-16T04:52:01;6.72;;;2.00;;
62894;SDS011;49204;44.916;37.998;2022-10-16T04:54:30;4.45;;;2.35;;
62894;SDS011;49204;44.916;37.998;2022-10-16T04:56:59;3.40;;;1.60;;
62894;SDS011;49204;44.916;37.998;2022-10-16T04:59:28;6.67;;;3.35;;
62894;SDS011;49204;44.916;37.998;2022-10-16T05:01:57;6.05;;;2.65;;
62894;SDS011;49204;44.916;37.998;2022-10-16T05:04:26;5.85;;;2.70;;
62894;SDS011;49204;44.916;37.998;2022-10-16T05:06:54;5.15;;;2.62;;
62894;SDS011;49204;44.916;37.998;2022-10-16T05:09:23;5.30;;;2.37;;
62894;SDS011;49204;44.916;37.998;2022-10-16T05:11:52;10.75;;;2.55;;
62894;SDS011;49204;44.916;37.998;2022-10-16T05:14:21;4.03;;;1.60;;
62894;SDS011;49204;44.916;37.998;2022-10-16T05:16:49;2.55;;;1.02;;
62894;SDS011;49204;44.916;37.998;2022-10-16T05:19:18;6.33;;;3.15;;
62894;SDS011;49204;44.916;37.998;2022-10-16T05:21:47;7.65;;;3.40;;
62894;SDS011;49204;44.916;37.998;2022-10-16T05:24:16;6.12;;;2.20;;
62894;SDS011;49204;44.916;37.998;2022-10-16T05:26:45;12.85;;;3.10;;
62894;SDS011;49204;44.916;37.998;2022-10-16T05:29:14;8.40;;;3.72;;
62894;SDS011;49204;44.916;37.998;2022-10-16T05:31:43;6.92;;;2.30;;
62894;SDS011;49204;44.916;37.998;2022-10-16T05:34:12;7.47;;;3.85;;
62894;SDS011;49204;44.916;37.998;2022-10-16T05:36:40;6.45;;;3.22;;
62894;SDS011;49204;44.916;37.998;2022-10-16T05:39:11;8.33;;;3.72;;
62894;SDS011;49204;44.916;37.998;2022-10-16T05:41:41;25.52;;;10.30;;
62894;SDS011;49204;44.916;37.998;2022-10-16T05:44:10;23.50;;;7.97;;
62894;SDS011;49204;44.916;37.998;2022-10-16T05:46:39;12.53;;;5.10;;
62894;SDS011;49204;44.916;37.998;2022-10-16T05:49:08;14.55;;;7.42;;
62894;SDS011;49204;44.916;37.998;2022-10-16T05:51:37;15.05;;;6.40;;
62894;SDS011;49204;44.916;37.998;2022-10-16T05:54:05;10.68;;;5.03;;
62894;SDS011;49204;44.916;37.998;2022-10-16T05:56:34;12.80;;;6.03;;
62894;SDS011;49204;44.916;37.998;2022-10-16T05:59:04;7.40;;;4.10;;
62894;SDS011;49204;44.916;37.998;2022-10-16T06:01:33;9.48;;;3.80;;
62894;SDS011;49204;44.916;37.998;2022-10-16T06:04:02;8.63;;;3.22;;
62894;SDS011;49204;44.916;37.998;2022-10-16T06:06:31;8.70;;;3.10;;
62894;SDS011;49204;44.916;37.998;2022-10-16T06:09:00;8.03;;;3.50;;
62894;SDS011;49204;44.916;37.998;2022-10-16T06:11:29;9.70;;;3.95;;
62894;SDS011;49204;44.916;37.998;2022-10-16T06:14:00;8.50;;;3.80;;
62894;SDS011;49204;44.916;37.998;2022-10-16T06:16:31;9.20;;;4.40;;
62894;SDS011;49204;44.916;37.998;2022-10-16T06:19:02;8.93;;;4.12;;
62894;SDS011;49204;44.916;37.998;2022-10-16T06:21:32;15.35;;;5.50;;
62894;SDS011;49204;44.916;37.998;2022-10-16T06:24:01;13.00;;;5.75;;
62894;SDS011;49204;44.916;37.998;2022-10-16T06:26:30;11.38;;;3.92;;
62894;SDS011;49204;44.916;37.998;2022-10-16T06:28:59;10.60;;;4.30;;
62894;SDS011;49204;44.916;37.998;2022-10-16T06:31:29;15.08;;;6.87;;
62894;SDS011;49204;44.916;37.998;2022-10-16T06:33:59;27.85;;;10.43;;
62894;SDS011;49204;44.916;37.998;2022-10-16T06:36:28;15.83;;;6.20;;
62894;SDS011;49204;44.916;37.998;2022-10-16T06:38:57;21.77;;;8.30;;
62894;SDS011;49204;44.916;37.998;2022-10-16T06:41:26;16.37;;;6.20;;
62894;SDS011;49204;44.916;37.998;2022-10-16T06:43:56;17.48;;;5.62;;
62894;SDS011;49204;44.916;37.998;2022-10-16T06:46:25;18.37;;;8.40;;
62894;SDS011;49204;44.916;37.998;2022-10-16T06:48:54;19.32;;;8.60;;
62894;SDS011;49204;44.916;37.998;2022-10-16T06:51:23;18.40;;;8.85;;
62894;SDS011;49204;44.916;37.998;2022-10-16T06:53:53;27.17;;;10.08;;
62894;SDS011;49204;44.916;37.998;2022-10-16T06:56:26;29.30;;;9.98;;
62894;SDS011;49204;44.916;37.998;2022-10-16T06:58:57;17.62;;;6.65;;
62894;SDS011;49204;44.916;37.998;2022-10-16T07:01:26;18.50;;;6.50;;
62894;SDS011;49204;44.916;37.998;2022-10-16T07:03:56;13.18;;;5.05;;
62894;SDS011;49204;44.916;37.998;2022-10-16T07:06:25;11.73;;;5.28;;
62894;SDS011;49204;44.916;37.998;2022-10-16T07:08:54;21.45;;;5.80;;
62894;SDS011;49204;44.916;37.998;2022-10-16T07:11:23;12.37;;;4.08;;
62894;SDS011;49204;44.916;37.998;2022-10-16T07:13:52;14.23;;;5.47;;
62894;SDS011;49204;44.916;37.998;2022-10-16T07:16:22;20.80;;;9.10;;
62894;SDS011;49204;44.916;37.998;2022-10-16T07:18:59;17.10;;;7.40;;
62894;SDS011;49204;44.916;37.998;2022-10-16T07:21:30;13.48;;;4.83;;
62894;SDS011;49204;44.916;37.998;2022-10-16T07:24:02;15.25;;;5.05;;
62894;SDS011;49204;44.916;37.998;2022-10-16T07:26:34;19.23;;;4.58;;
62894;SDS011;49204;44.916;37.998;2022-10-16T07:29:06;12.50;;;4.60;;
62894;SDS011;49204;44.916;37.998;2022-10-16T07:31:37;12.33;;;4.58;;
62894;SDS011;49204;44.916;37.998;2022-10-16T07:34:06;10.13;;;4.55;;
62894;SDS011;49204;44.916;37.998;2022-10-16T07:36:35;15.60;;;6.67;;
62894;SDS011;49204;44.916;37.998;2022-10-16T07:39:04;7.12;;;3.33;;
62894;SDS011;49204;44.916;37.998;2022-10-16T07:41:33;7.58;;;2.25;;
62894;SDS011;49204;44.916;37.998;2022-10-16T07:44:04;6.75;;;3.20;;
62894;SDS011;49204;44.916;37.998;2022-10-16T07:46:33;3.50;;;2.08;;
62894;SDS011;49204;44.916;37.998;2022-10-16T07:49:02;5.78;;;2.62;;
62894;SDS011;49204;44.916;37.998;2022-10-16T07:51:31;7.50;;;3.70;;
62894;SDS011;49204;44.916;37.998;2022-10-16T07:54:00;5.12;;;2.00;;
62894;SDS011;49204;44.916;37.998;2022-10-16T07:56:30;6.47;;;2.98;;
62894;SDS011;49204;44.916;37.998;2022-10-16T07:58:59;3.35;;;1.60;;
62894;SDS011;49204;44.916;37.998;2022-10-16T08:01:28;10.98;;;2.75;;
62894;SDS011;49204;44.916;37.998;2022-10-16T08:03:57;9.95;;;4.85;;
62894;SDS011;49204;44.916;37.998;2022-10-16T08:06:25;7.60;;;2.72;;
62894;SDS011;49204;44.916;37.998;2022-10-16T08:08:54;5.47;;;2.90;;
62894;SDS011;49204;44.916;37.998;2022-10-16T08:11:23;5.20;;;2.42;;
62894;SDS011;49204;44.916;37.998;2022-10-16T08:13:52;6.33;;;3.05;;
62894;SDS011;49204;44.916;37.998;2022-10-16T08:16:21;4.50;;;2.80;;
62894;SDS011;49204;44.916;37.998;2022-10-16T08:18:50;7.70;;;3.33;;
62894;SDS011;49204;44.916;37.998;2022-10-16T08:21:20;6.10;;;2.80;;
62894;SDS011;49204;44.916;37.998;2022-10-16T08:23:50;10.50;;;3.35;;
62894;SDS011;49204;44.916;37.998;2022-10-16T08:26:21;3.67;;;2.22;;
62894;SDS011;49204;44.916;37.998;2022-10-16T08:28:51;5.72;;;2.90;;
62894;SDS011;49204;44.916;37.998;2022-10-16T08:31:20;10.78;;;2.87;;
62894;SDS011;49204;44.916;37.998;2022-10-16T08:33:49;3.90;;;2.62;;
62894;SDS011;49204;44.916;37.998;2022-10-16T08:36:18;7.28;;;2.98;;
62894;SDS011;49204;44.916;37.998;2022-10-16T08:38:48;8.80;;;3.12;;
62894;SDS011;49204;44.916;37.998;2022-10-16T08:41:19;5.25;;;3.08;;
62894;SDS011;49204;44.916;37.998;2022-10-16T08:47:33;4.92;;;2.90;;
62894;SDS011;49204;44.916;37.998;2022-10-16T08:49:20;6.35;;;2.60;;
62894;SDS011;49204;44.916;37.998;2022-10-16T08:51:51;5.45;;;2.90;;
62894;SDS011;49204;44.916;37.998;2022-10-16T08:54:27;8.45;;;3.17;;
62894;SDS011;49204;44.916;37.998;2022-10-16T08:57:04;6.45;;;2.67;;
62894;SDS011;49204;44.916;37.998;2022-10-16T08:59:26;6.35;;;2.83;;
62894;SDS011;49204;44.916;37.998;2022-10-16T09:01:55;4.03;;;2.67;;
62894;SDS011;49204;44.916;37.998;2022-10-16T09:07:48;4.60;;;2.42;;
62894;SDS011;49204;44.916;37.998;2022-10-16T09:12:40;8.83;;;3.17;;
62894;SDS011;49204;44.916;37.998;2022-10-16T09:18:16;6.50;;;3.15;;
62894;SDS011;49204;44.916;37.998;2022-10-16T09:20:51;5.87;;;2.40;;
62894;SDS011;49204;44.916;37.998;2022-10-16T09:23:28;10.43;;;3.75;;
62894;SDS011;49204;44.916;37.998;2022-10-16T09:25:58;6.05;;;2.77;;
62894;SDS011;49204;44.916;37.998;2022-10-16T09:28:27;4.28;;;2.98;;
62894;SDS011;49204;44.916;37.998;2022-10-16T09:30:56;4.95;;;3.25;;
62894;SDS011;49204;44.916;37.998;2022-10-16T09:33:27;6.28;;;3.10;;
62894;SDS011;49204;44.916;37.998;2022-10-16T09:35:59;7.47;;;3.40;;
62894;SDS011;49204;44.916;37.998;2022-10-16T09:38:33;8.20;;;4.20;;
62894;SDS011;49204;44.916;37.998;2022-10-16T09:43:57;6.08;;;3.22;;
62894;SDS011;49204;44.916;37.998;2022-10-16T09:49:05;7.83;;;3.75;;
62894;SDS011;49204;44.916;37.998;2022-10-16T09:51:36;10.68;;;4.47;;
62894;SDS011;49204;44.916;37.998;2022-10-16T09:56:40;11.20;;;4.33;;
62894;SDS011;49204;44.916;37.998;2022-10-16T09:59:21;7.62;;;4.40;;
62894;SDS011;49204;44.916;37.998;2022-10-16T10:04:23;6.47;;;4.17;;
62894;SDS011;49204;44.916;37.998;2022-10-16T10:06:55;7.47;;;3.60;;
62894;SDS011;49204;44.916;37.998;2022-10-16T10:09:28;6.92;;;3.65;;
62894;SDS011;49204;44.916;37.998;2022-10-16T10:12:02;8.13;;;4.08;;
62894;SDS011;49204;44.916;37.998;2022-10-16T10:14:37;6.80;;;3.85;;
62894;SDS011;49204;44.916;37.998;2022-10-16T10:17:23;8.95;;;3.83;;
62894;SDS011;49204;44.916;37.998;2022-10-16T10:19:55;10.65;;;4.05;;
62894;SDS011;49204;44.916;37.998;2022-10-16T10:22:31;11.75;;;3.90;;
62894;SDS011;49204;44.916;37.998;2022-10-16T10:25:14;7.95;;;4.33;;
62894;SDS011;49204;44.916;37.998;2022-10-16T10:30:54;7.55;;;3.95;;
62894;SDS011;49204;44.916;37.998;2022-10-16T10:33:49;8.25;;;4.12;;
62894;SDS011;49204;44.916;37.998;2022-10-16T10:36:36;8.95;;;4.45;;
62894;SDS011;49204;44.916;37.998;2022-10-16T10:39:07;17.73;;;6.15;;
62894;SDS011;49204;44.916;37.998;2022-10-16T10:50:08;12.30;;;5.67;;
62894;SDS011;49204;44.916;37.998;2022-10-16T10:52:52;19.50;;;8.93;;
62894;SDS011;49204;44.916;37.998;2022-10-16T10:55:33;13.80;;;7.15;;
62894;SDS011;49204;44.916;37.998;2022-10-16T11:00:57;11.33;;;5.12;;
62894;SDS011;49204;44.916;37.998;2022-10-16T11:08:50;17.00;;;10.10;;
62894;SDS011;49204;44.916;37.998;2022-10-16T11:11:34;23.32;;;10.08;;
62894;SDS011;49204;44.916;37.998;2022-10-16T11:14:18;15.43;;;6.10;;
62894;SDS011;49204;44.916;37.998;2022-10-16T11:16:57;16.27;;;7.78;;
62894;SDS011;49204;44.916;37.998;2022-10-16T11:19:31;14.35;;;6.67;;
62894;SDS011;49204;44.916;37.998;2022-10-16T11:22:16;13.48;;;6.92;;
62894;SDS011;49204;44.916;37.998;2022-10-16T11:33:04;19.15;;;8.60;;
62894;SDS011;49204;44.916;37.998;2022-10-16T11:35:48;12.82;;;5.62;;
62894;SDS011;49204;44.916;37.998;2022-10-16T11:46:51;5.60;;;2.93;;
62894;SDS011;49204;44.916;37.998;2022-10-16T11:49:21;14.40;;;5.72;;
62894;SDS011;49204;44.916;37.998;2022-10-16T11:51:55;14.78;;;5.70;;
62894;SDS011;49204;44.916;37.998;2022-10-16T11:57:12;7.72;;;4.90;;
62894;SDS011;49204;44.916;37.998;2022-10-16T11:59:42;11.25;;;4.15;;
62894;SDS011;49204;44.916;37.998;2022-10-16T12:05:11;9.03;;;4.45;;
62894;SDS011;49204;44.916;37.998;2022-10-16T12:10:31;13.70;;;5.12;;
62894;SDS011;49204;44.916;37.998;2022-10-16T12:13:04;14.93;;;5.30;;
62894;SDS011;49204;44.916;37.998;2022-10-16T12:15:34;13.03;;;5.42;;
62894;SDS011;49204;44.916;37.998;2022-10-16T12:18:03;14.13;;;5.72;;
62894;SDS011;49204;44.916;37.998;2022-10-16T12:20:34;13.18;;;6.33;;
62894;SDS011;49204;44.916;37.998;2022-10-16T12:23:16;11.73;;;4.50;;
62894;SDS011;49204;44.916;37.998;2022-10-16T12:25:35;17.35;;;7.03;;
62894;SDS011;49204;44.916;37.998;2022-10-16T12:30:52;26.48;;;11.25;;
62894;SDS011;49204;44.916;37.998;2022-10-16T12:33:43;22.52;;;11.38;;
62894;SDS011;49204;44.916;37.998;2022-10-16T12:36:34;22.65;;;10.85;;
62894;SDS011;49204;44.916;37.998;2022-10-16T12:39:16;16.85;;;6.60;;
62894;SDS011;49204;44.916;37.998;2022-10-16T12:41:38;18.07;;;8.43;;
62894;SDS011;49204;44.916;37.998;2022-10-16T12:44:20;22.37;;;12.10;;
62894;SDS011;49204;44.916;37.998;2022-10-16T12:46:53;21.05;;;8.38;;
62894;SDS011;49204;44.916;37.998;2022-10-16T12:52:00;15.78;;;7.50;;
62894;SDS011;49204;44.916;37.998;2022-10-16T12:54:30;21.23;;;8.93;;
62894;SDS011;49204;44.916;37.998;2022-10-16T13:05:16;20.85;;;10.95;;
62894;SDS011;49204;44.916;37.998;2022-10-16T13:11:00;17.15;;;7.75;;
62894;SDS011;49204;44.916;37.998;2022-10-16T13:14:32;16.07;;;7.75;;
62894;SDS011;49204;44.916;37.998;2022-10-16T13:16:28;19.00;;;7.83;;
62894;SDS011;49204;44.916;37.998;2022-10-16T13:21:36;25.30;;;9.35;;
62894;SDS011;49204;44.916;37.998;2022-10-16T13:24:33;21.80;;;7.40;;
62894;SDS011;49204;44.916;37.998;2022-10-16T13:27:24;25.80;;;9.13;;
62894;SDS011;49204;44.916;37.998;2022-10-16T13:29:52;21.40;;;9.53;;
62894;SDS011;49204;44.916;37.998;2022-10-16T13:32:23;21.93;;;8.20;;
62894;SDS011;49204;44.916;37.998;2022-10-16T13:34:52;16.02;;;8.65;;
62894;SDS011;49204;44.916;37.998;2022-10-16T13:37:21;21.68;;;8.95;;
62894;SDS011;49204;44.916;37.998;2022-10-16T13:40:01;23.85;;;10.38;;
62894;SDS011;49204;44.916;37.998;2022-10-16T13:42:38;21.82;;;8.35;;
62894;SDS011;49204;44.916;37.998;2022-10-16T13:45:17;18.02;;;8.10;;
62894;SDS011;49204;44.916;37.998;2022-10-16T13:50:43;15.05;;;7.70;;
62894;SDS011;49204;44.916;37.998;2022-10-16T13:53:32;31.80;;;10.88;;
62894;SDS011;49204;44.916;37.998;2022-10-16T13:56:03;28.07;;;11.78;;
62894;SDS011;49204;44.916;37.998;2022-10-16T13:58:33;15.58;;;7.28;;
62894;SDS011;49204;44.916;37.998;2022-10-16T14:01:03;27.37;;;9.88;;
62894;SDS011;49204;44.916;37.998;2022-10-16T14:03:34;25.60;;;10.25;;
62894;SDS011;49204;44.916;37.998;2022-10-16T14:06:03;22.15;;;9.18;;
62894;SDS011;49204;44.916;37.998;2022-10-16T14:08:35;19.12;;;8.50;;
62894;SDS011;49204;44.916;37.998;2022-10-16T14:11:04;22.75;;;9.23;;
62894;SDS011;49204;44.916;37.998;2022-10-16T14:13:43;22.17;;;10.08;;
62894;SDS011;49204;44.916;37.998;2022-10-16T14:16:17;18.23;;;8.13;;
62894;SDS011;49204;44.916;37.998;2022-10-16T14:18:57;26.30;;;10.25;;
62894;SDS011;49204;44.916;37.998;2022-10-16T14:21:28;23.55;;;9.53;;
62894;SDS011;49204;44.916;37.998;2022-10-16T14:23:58;27.62;;;10.08;;
62894;SDS011;49204;44.916;37.998;2022-10-16T14:26:28;22.05;;;9.00;;
62894;SDS011;49204;44.916;37.998;2022-10-16T14:29:13;18.23;;;7.62;;
62894;SDS011;49204;44.916;37.998;2022-10-16T14:31:43;20.60;;;8.18;;
62894;SDS011;49204;44.916;37.998;2022-10-16T14:34:38;22.77;;;9.28;;
62894;SDS011;49204;44.916;37.998;2022-10-16T14:37:17;21.77;;;7.80;;
62894;SDS011;49204;44.916;37.998;2022-10-16T14:39:58;19.32;;;7.53;;
62894;SDS011;49204;44.916;37.998;2022-10-16T14:42:29;25.62;;;8.45;;
62894;SDS011;49204;44.916;37.998;2022-10-16T14:44:58;25.72;;;8.20;;
62894;SDS011;49204;44.916;37.998;2022-10-16T14:47:27;23.12;;;9.53;;
62894;SDS011;49204;44.916;37.998;2022-10-16T14:49:56;23.55;;;8.63;;
62894;SDS011;49204;44.916;37.998;2022-10-16T14:52:26;23.50;;;10.98;;
62894;SDS011;49204;44.916;37.998;2022-10-16T14:54:55;25.48;;;10.05;;
62894;SDS011;49204;44.916;37.998;2022-10-16T14:57:24;30.25;;;12.63;;
62894;SDS011;49204;44.916;37.998;2022-10-16T14:59:56;19.13;;;9.07;;
62894;SDS011;49204;44.916;37.998;2022-10-16T15:02:27;18.70;;;9.58;;
62894;SDS011;49204;44.916;37.998;2022-10-16T15:05:07;34.58;;;15.23;;
62894;SDS011;49204;44.916;37.998;2022-10-16T15:07:38;29.60;;;12.63;;
62894;SDS011;49204;44.916;37.998;2022-10-16T15:10:07;33.95;;;12.50;;
62894;SDS011;49204;44.916;37.998;2022-10-16T15:12:36;24.27;;;10.55;;
62894;SDS011;49204;44.916;37.998;2022-10-16T15:15:15;28.07;;;12.20;;
62894;SDS011;49204;44.916;37.998;2022-10-16T15:17:53;21.42;;;9.73;;
62894;SDS011;49204;44.916;37.998;2022-10-16T15:20:24;25.02;;;9.53;;
62894;SDS011;49204;44.916;37.998;2022-10-16T15:23:00;19.55;;;8.40;;
62894;SDS011;49204;44.916;37.998;2022-10-16T15:25:34;22.37;;;10.63;;
62894;SDS011;49204;44.916;37.998;2022-10-16T15:28:06;22.48;;;9.90;;
62894;SDS011;49204;44.916;37.998;2022-10-16T15:30:36;19.65;;;8.70;;
62894;SDS011;49204;44.916;37.998;2022-10-16T15:33:08;17.48;;;8.63;;
62894;SDS011;49204;44.916;37.998;2022-10-16T15:35:45;18.02;;;8.15;;
62894;SDS011;49204;44.916;37.998;2022-10-16T15:38:19;17.35;;;7.55;;
62894;SDS011;49204;44.916;37.998;2022-10-16T15:40:49;16.37;;;8.00;;
62894;SDS011;49204;44.916;37.998;2022-10-16T15:43:22;16.12;;;6.58;;
62894;SDS011;49204;44.916;37.998;2022-10-16T15:48:38;20.77;;;7.33;;
62894;SDS011;49204;44.916;37.998;2022-10-16T15:51:08;17.10;;;5.30;;
62894;SDS011;49204;44.916;37.998;2022-10-16T15:53:39;7.28;;;3.75;;
62894;SDS011;49204;44.916;37.998;2022-10-16T15:56:08;10.43;;;3.90;;
62894;SDS011;49204;44.916;37.998;2022-10-16T15:58:39;9.38;;;3.77;;
62894;SDS011;49204;44.916;37.998;2022-10-16T16:01:08;10.65;;;3.42;;
62894;SDS011;49204;44.916;37.998;2022-10-16T16:03:38;5.67;;;2.75;;
62894;SDS011;49204;44.916;37.998;2022-10-16T16:06:08;5.87;;;2.47;;
62894;SDS011;49204;44.916;37.998;2022-10-16T16:08:38;5.25;;;2.60;;
62894;SDS011;49204;44.916;37.998;2022-10-16T16:11:08;5.60;;;2.62;;
62894;SDS011;49204;44.916;37.998;2022-10-16T16:13:40;4.47;;;2.53;;
62894;SDS011;49204;44.916;37.998;2022-10-16T16:16:11;6.28;;;2.83;;
62894;SDS011;49204;44.916;37.998;2022-10-16T16:18:42;7.90;;;2.40;;
62894;SDS011;49204;44.916;37.998;2022-10-16T16:23:53;6.25;;;2.60;;
62894;SDS011;49204;44.916;37.998;2022-10-16T16:26:24;7.78;;;3.33;;
62894;SDS011;49204;44.916;37.998;2022-10-16T16:28:59;6.15;;;2.52;;
62894;SDS011;49204;44.916;37.998;2022-10-16T16:31:28;7.78;;;3.02;;
62894;SDS011;49204;44.916;37.998;2022-10-16T16:33:58;6.90;;;3.20;;
62894;SDS011;49204;44.916;37.998;2022-10-16T16:36:27;9.55;;;2.72;;
62894;SDS011;49204;44.916;37.998;2022-10-16T16:38:56;8.05;;;3.40;;
62894;SDS011;49204;44.916;37.998;2022-10-16T16:41:26;7.80;;;2.90;;
62894;SDS011;49204;44.916;37.998;2022-10-16T16:44:06;10.88;;;2.83;;
62894;SDS011;49204;44.916;37.998;2022-10-16T16:46:31;10.10;;;2.45;;
62894;SDS011;49204;44.916;37.998;2022-10-16T16:49:00;10.85;;;3.52;;
62894;SDS011;49204;44.916;37.998;2022-10-16T16:51:30;9.90;;;3.35;;
62894;SDS011;49204;44.916;37.998;2022-10-16T16:54:01;7.95;;;2.92;;